UPDATE or REFRESH or RELOAD each time you view race results!

The  Belmont 16ft Sailing Club Ltd  Presents

Results by : TopYacht Software

Race 6   [31/12/2011]   updated on :  31/12/2011  3:41:09 PM

Cadet National Championships 2011/12

Cadet Nationals results Start : 14:12
Place Sail No Boat Name From Elapsd YS Cor d T Skipper CREW Score Fin Tim
1 9280 UNFINISHED BUSINESS SYC 01:04:13 01:04:13 Alice Endersbee Eliza Davies 1.0 15:16:13
2 9424 SHIMMER SBSC 01:04:29 01:04:29 Sam Abel William Cooper 2.0 15:16:29
3 9699 SIROCCO SBSC 01:04:37 01:04:37 Charlie Connor Ethan Galbraith 3.0 15:16:37
4 9552 EXECUTIONER SBSC 01:04:54 01:04:54 Silas Hamilton Rupert Hamilton 4.0 15:16:54
5 5637 VAMOOSE SYC 01:05:03 01:05:03 Charlie Rae Patrick Rohan 5.0 15:17:03
6 9698 WILDCARD RGYC 01:05:10 01:05:10 Liam Robinson Gabe Nolan 6.0 15:17:10
7 9778 IMPULSE SBSC 01:06:48 01:06:48 Samantha Bailey Hannah Chadwick 7.0 15:18:48
8 9562 MELTEMI SBSC 01:07:33 01:07:33 Oliver Burnell Issie De Clerk 8.0 15:19:33
9 9629 WHITE MISSILE RGYC 01:08:10 01:08:10 Nicola Armstrong Emma Kelly 9.0 15:20:10
10 5700 SIDEWINDER RYCV 01:08:20 01:08:20 Louis Schofield Max Knell 10.0 15:20:20
11 9528 ODYSSEY SYC 01:08:26 01:08:26 Jarad Cavanagh Shae Rohan 11.0 15:20:26
12 9531 PHOENIX SBSC 01:08:32 01:08:32 Sam Tiedemann Chloe Abel 12.0 15:20:32
13 9526 HYPER HYPER SYC 01:09:29 01:09:29 Ashley Cavanagh Georgia Wiley 13.0 15:21:29
14 5653 MANXMAN RYCV 01:09:38 01:09:38 Brodie Roberts Callum Prestedge 14.0 15:21:38
15 9523 BROTHERS IN ARMS RGYC 01:09:42 01:09:42 Darcy Baranowski Dominic Randall 15.0 15:21:42
16 5663 REDPATH RGYC 01:09:45 01:09:45 Georgia Randall Matthew Eid 16.0 15:21:45
17 9284 MAGOO 2 SYC 01:09:50 01:09:50 Patrick Chipp Jack Furey 17.0 15:21:50
18 9822 GOODNESS GRACIOUS SYC 01:10:06 01:10:06 Grace Endersbee Courtney Perryman 18.0 15:22:06
19 9824 ENDLESS SUMMER PLYC 01:10:09 01:10:09 Amy Perin Marni Lydeamore 19.0 15:22:09
20 5494 RUSTLER BSC 01:10:20 01:10:20 Stuart Plenderleith Oscar O'Brien 20.0 15:22:20
21 9747 LIFE TO THE XTREME PLYC 01:10:38 01:10:38 Georgina Hughes Elsie Kenny 21.0 15:22:38
22 9620 BLITZ~EM BSC 01:10:57 01:10:57 Ryan Bogatez Mark Donovan 22.0 15:22:57
23 9621 STEALTH RYCV 01:11:02 01:11:02 Jack Fowler Ryan Croft 23.0 15:23:02
24 4109 SNAKEBITE RGYC 01:11:10 01:11:10 William Townson Claire Townson 24.0 15:23:10
25 8931 MIDNIGHT MAGIC RGYC 01:11:16 01:11:16 Charlie Friend Ben Townson 25.0 15:23:16
26 9529 INSAYNE SYC 01:11:24 01:11:24 Jacob Freeman Jonathan Coman 26.0 15:23:24
27 9611 HOLD ON RYCV 01:11:37 01:11:37 Harrison Croft James Black 27.0 15:23:37
28 5758 WILD THING SBSC 01:11:38 01:11:38 Thomas Cooper Angus Price 28.0 15:23:38
29 9614 TEMPEST RGYC 01:11:41 01:11:41 Olivia Neilson Joel Lay 29.0 15:23:41
30 9744 SHADOW LBSC 01:11:49 01:11:49 Jalina Thompson-Kamb Starr Thompson 30.0 15:23:49
31 9550 JOLT BSC 01:11:54 01:11:54 Sarah Lawman Robert Donovan 31.0 15:23:54
32 4118 SKEETA RGYC 01:12:08 01:12:08 Oliver Friend Jasper Cartwright 32.0 15:24:08
33 9628 IT'S PINK! RGYC 01:12:24 01:12:24 Emily Goodfellow Lachlan Hill 33.0 15:24:24
34 9612 DIRTY HARRY SYC 01:12:32 01:12:32 Angus Rae Zoe Rae 34.0 15:24:32
35 5509 SAMARAN SYC 01:12:40 01:12:40 Julian Sasson Molly Furey 35.0 15:24:40
36 9559 RESISTANCE RGYC 01:12:53 01:12:53 Riley Mulgrew Oliver Manton 36.0 15:24:53
37 9520 DROP BEARS SBSC 01:13:06 01:13:06 William Connor Callum Ingram 37.0 15:25:06
38 9281 HIGH CALIBRE PLYC 01:13:23 01:13:23 Lauren Henderson Alissa Kelsey 38.0 15:25:23
39 6969 BRIDGEWICK FARM RYCV 01:13:25 01:13:25 Lucy Fowler Wynn Schofield 39.0 15:25:25
40 5740 RECOIL BSC 01:13:38 01:13:38 James Burley-Jukes Charlotte Rogers 40.0 15:25:38
41 9561 WINNING EDGE SBSC 01:14:10 01:14:10 Toby Burnell Poppy Newton 41.0 15:26:10
42 5501 WASABI BSC 01:14:17 01:14:17 Luke Bogatez Matthew Ackery 42.0 15:26:17
43 5757 STRIKER SYC 01:14:42 01:14:42 Dylan Rohan Lachlan Coman 43.0 15:26:42
44 9777 X-T-SEA RGYC 01:14:44 01:14:44 Billy Goodfellow Joshua Hill 44.0 15:26:44
45 9823 LEAP FROG RGYC 01:14:47 01:14:47 Lucy Stephens Alanna Field 45.0 15:26:47
46 9821 SIBERIAN TIGER RGYC 01:14:56 01:14:56 Sam Stephens Nathan Field 46.0 15:26:56
47 9426 CRAZY BSC 01:15:09 01:15:09 Tristan O'Brien Ella Gray 47.0 15:27:09
48 9524 KING GEORGE RYCV 01:15:11 01:15:11 Phillipah Miller Lucy Fowler 48.0 15:27:11
49 5661 REBEL TWO RGYC 01:15:18 01:15:18 Will Newman Nick Manton 49.0 15:27:18
50 9527 MUSTANG SALLY RYCV 01:15:42 01:15:42 Jacqueline Prestedge Callum Girvin 50.0 15:27:42
51 9287 CORINTHIAN BSC 01:16:05 01:16:05 Fenella Obrien Toby Burley-Jukes 51.0 15:28:05
52 5636 TRUMP CARD BMYC 01:16:28 01:16:28 Kurt Braden Zac Braden 52.0 15:28:28
53 9626 CLAREBUOYANT RYCV 01:17:21 01:17:21 Clare Olding Patrick De Koster 53.0 15:29:21
54 9616 CHECKMATE RGYC 01:18:15 01:18:15 Thomas Alexander Dexter Hare-Zen 54.0 15:30:15
55 9617 BULLANT RYCV 01:18:20 01:18:20 Michael Johnson Eamon Zappia 55.0 15:30:20
56 4690 SAILMAKER RYCV 01:19:16 01:19:16 Ben Wilson Ryan Cambell 56.0 15:31:16
57 4881 PIRANHA BSC 01:21:10 01:21:10 Charlotte Gray Mackenzie Gray 57.0 15:33:10
58 5616 LOQUACIOUS SYC 01:22:01 01:22:01 Brooke Robson Zoe Wiley 58.0 15:34:01
59 5489 DELTA BSC 01:22:39 01:22:39 Vicki Waldock Hannah Miller 59.0 15:34:39
60 5752 IMP RGYC 01:24:17 01:24:17 Aimee Altermatt Ryu Mayumi 60.0 15:36:17